Time;durP1;ratioP1;P1;durP2;ratioP2;P2;SDS_P1;SDS_P2;PMS_P1;PMS_P2;Temp;Humidity;BMP_temperature;BMP_pressure;BME280_temperature;BME280_humidity;BME280_pressure;Samples;Min_cycle;Max_cycle;Signal;HPM_P1;HPM_P2
2021/06/04 00:01:20;;;;;;;9.02;5.10;;;16.10;99.90;;;15.03;73.91;102015.22;5012845;28;20068;-76
2021/06/04 00:03:47;;;;;;;13.68;5.05;;;16.00;99.90;;;14.96;74.38;102014.63;5004251;28;20063;-75
2021/06/04 00:06:14;;;;;;;10.27;4.90;;;16.00;99.90;;;15.00;74.23;102010.06;5014095;28;20129;-76
2021/06/04 00:08:41;;;;;;;11.35;5.15;;;16.00;99.90;;;14.83;74.82;102002.84;4972905;28;20547;-76
2021/06/04 00:11:26;;;;;;;12.10;5.60;;;15.90;99.90;;;14.95;73.63;102003.19;4980979;28;20424;-75
2021/06/04 00:14:00;;;;;;;9.75;5.10;;;16.00;99.90;;;14.91;74.13;102004.25;4963737;28;20086;-76
2021/06/04 00:16:45;;;;;;;16.30;5.47;;;16.00;99.90;;;15.02;72.20;101997.59;4987338;28;20101;-75
2021/06/04 00:19:16;;;;;;;9.40;4.80;;;16.10;99.90;;;15.17;70.18;101989.78;4997041;28;20073;-76
2021/06/04 00:21:48;;;;;;;6.78;4.10;;;16.30;99.90;;;15.35;68.99;101992.53;4995371;28;20060;-76
2021/06/04 00:24:16;;;;;;;7.78;4.57;;;16.40;99.90;;;15.43;67.81;101985.09;4998519;28;20160;-76
2021/06/04 00:26:46;;;;;;;6.45;4.57;;;16.50;99.90;;;15.49;66.91;101986.59;4969098;28;20556;-76
2021/06/04 00:29:15;;;;;;;8.18;4.20;;;16.60;99.90;;;15.55;66.11;101989.81;5002275;28;20081;-76
2021/06/04 00:31:44;;;;;;;8.38;4.38;;;16.60;99.90;;;15.59;65.76;101993.16;4975641;28;20477;-76
2021/06/04 00:34:13;;;;;;;6.03;3.63;;;16.60;99.90;;;15.58;65.58;102002.94;5010649;28;20066;-76
2021/06/04 00:36:43;;;;;;;5.97;3.80;;;16.60;99.90;;;15.60;64.07;102010.84;5001683;28;20551;-75
2021/06/04 00:39:12;;;;;;;6.45;3.72;;;16.70;99.90;;;15.62;63.65;102019.59;4979289;28;20134;-75
2021/06/04 00:41:55;;;;;;;6.80;4.03;;;16.60;99.90;;;15.47;65.86;102028.28;5000862;28;20065;-75
2021/06/04 00:44:22;;;;;;;5.45;3.50;;;16.40;99.90;;;15.22;68.96;102032.03;5013876;28;20070;-76
2021/06/04 00:46:48;;;;;;;13.98;4.50;;;16.20;99.90;;;15.09;72.29;102050.28;5014509;28;20055;-76
2021/06/04 00:49:15;;;;;;;13.35;4.15;;;16.00;99.90;;;14.90;74.52;102054.69;4993041;28;20151;-76
2021/06/04 00:51:55;;;;;;;7.45;5.07;;;15.90;99.90;;;14.70;76.45;102055.56;4985323;28;20058;-75
2021/06/04 00:54:23;;;;;;;10.15;4.63;;;15.70;99.90;;;14.57;77.54;102057.88;4988254;28;20076;-76
2021/06/04 00:56:50;;;;;;;6.82;4.55;;;15.50;99.90;;;14.39;76.67;102059.47;5012781;28;20563;-76
2021/06/04 01:00:00;;;;;;;9.68;4.75;;;15.50;99.90;;;14.39;77.89;102056.81;4998633;28;20092;-76
2021/06/04 01:02:24;;;;;;;9.15;4.57;;;15.50;99.90;;;14.41;78.60;102072.66;5014203;28;20068;-75
2021/06/04 01:04:51;;;;;;;8.70;4.60;;;15.50;99.90;;;14.36;80.57;102064.88;5003111;28;20064;-76
2021/06/04 01:07:30;;;;;;;7.97;4.78;;;15.40;99.90;;;14.26;78.52;102069.72;4989826;28;20091;-76
2021/06/04 01:10:11;;;;;;;9.40;4.35;;;15.40;99.90;;;14.23;79.10;102067.16;5014178;28;20537;-76
2021/06/04 01:13:27;;;;;;;6.60;4.22;;;15.30;99.90;;;14.20;79.60;102080.56;5039171;28;20064;-76
2021/06/04 01:15:58;;;;;;;7.95;4.90;;;15.30;99.90;;;14.03;84.04;102080.34;4985927;28;20057;-76
2021/06/04 01:19:15;;;;;;;7.20;4.85;;;15.10;99.90;;;13.83;84.23;102074.06;5010181;28;20065;-76
2021/06/04 01:21:54;;;;;;;9.13;5.18;;;15.00;99.90;;;13.87;83.49;102080.09;5007119;28;20529;-76
2021/06/04 01:24:54;;;;;;;8.57;5.10;;;15.00;99.90;;;13.86;84.18;102079.22;4997626;28;20073;-76
2021/06/04 01:27:46;;;;;;;9.45;4.88;;;14.90;99.90;;;13.69;84.47;102071.06;5014235;28;20151;-76
2021/06/04 01:30:37;;;;;;;9.38;5.05;;;14.90;99.90;;;13.70;83.73;102080.75;5014138;28;20070;-76
2021/06/04 01:33:30;;;;;;;7.15;4.45;;;14.90;99.90;;;13.69;84.30;102077.25;4995216;28;20059;-76
2021/06/04 01:36:00;;;;;;;8.27;4.78;;;14.80;99.90;;;13.67;85.16;102080.84;4997777;28;20061;-76
2021/06/04 01:38:32;;;;;;;8.35;5.43;;;14.90;99.90;;;13.72;84.40;102082.41;4986030;28;20065;-76
2021/06/04 01:41:07;;;;;;;8.30;4.78;;;14.90;99.90;;;13.70;83.17;102088.69;5005040;28;20060;-76
2021/06/04 01:43:45;;;;;;;8.75;4.57;;;14.90;99.90;;;13.72;82.83;102082.41;5018813;28;20087;-76
2021/06/04 01:46:37;;;;;;;8.68;5.07;;;14.90;99.90;;;13.80;79.26;102075.94;5029563;28;20420;-76
2021/06/04 01:49:22;;;;;;;5.72;4.55;;;14.90;99.90;;;13.79;80.45;102075.09;5016464;28;20091;-76
2021/06/04 01:51:56;;;;;;;6.95;4.90;;;14.90;99.90;;;13.73;80.17;102076.19;5007157;28;20509;-76
2021/06/04 01:55:01;;;;;;;8.25;5.07;;;14.90;99.90;;;13.74;78.74;102063.84;4996777;28;20066;-76
2021/06/04 01:57:37;;;;;;;11.50;4.85;;;14.90;99.90;;;13.75;80.10;102071.69;5007077;28;20065;-75
2021/06/04 02:00:26;;;;;;;5.65;3.97;;;14.90;99.90;;;13.75;77.62;102062.91;4994770;28;20087;-76
2021/06/04 02:02:52;;;;;;;10.95;4.60;;;14.90;99.90;;;13.82;78.46;102064.41;5004733;28;20540;-76
2021/06/04 02:05:24;;;;;;;11.10;4.88;;;14.90;99.90;;;13.83;77.94;102073.19;5014198;28;20117;-76
2021/06/04 02:07:52;;;;;;;7.88;4.30;;;14.90;99.90;;;13.85;76.78;102068.72;5011302;28;20114;-76
2021/06/04 02:10:34;;;;;;;9.82;4.53;;;15.10;99.90;;;14.08;72.88;102062.50;5014165;28;20137;-76
2021/06/04 02:13:02;;;;;;;6.63;3.60;;;15.20;99.90;;;14.23;71.17;102066.31;4988081;28;20095;-76
2021/06/04 02:15:34;;;;;;;8.70;3.85;;;15.50;99.90;;;14.48;68.84;102055.56;5006208;28;20528;-75
2021/06/04 02:18:23;;;;;;;6.35;3.47;;;15.50;99.90;;;14.52;68.33;102062.47;4994188;28;20126;-75
2021/06/04 02:21:07;;;;;;;8.70;4.00;;;15.60;99.90;;;14.49;69.54;102058.16;4999404;28;20063;-76
2021/06/04 02:23:41;;;;;;;5.38;3.65;;;15.60;99.90;;;14.57;69.53;102052.56;5012813;28;20071;-75
2021/06/04 02:26:13;;;;;;;9.30;3.58;;;15.60;99.90;;;14.43;69.38;102045.16;4997554;28;20134;-75
2021/06/04 02:28:55;;;;;;;7.53;3.47;;;15.60;99.90;;;14.43;69.76;102041.66;5013470;28;20443;-76
2021/06/04 02:31:35;;;;;;;7.57;4.50;;;15.50;99.90;;;14.40;70.03;102045.28;5027723;28;20121;-75
2021/06/04 02:34:33;;;;;;;4.95;3.92;;;15.50;99.90;;;14.32;69.43;102047.41;4992146;28;20068;-76
2021/06/04 02:37:27;;;;;;;6.80;4.03;;;15.50;99.90;;;14.40;69.74;102042.63;5010195;28;20100;-76
2021/06/04 02:40:08;;;;;;;6.57;3.55;;;15.50;99.90;;;14.45;68.82;102045.97;5022457;28;20127;-76
2021/06/04 02:42:46;;;;;;;4.68;3.38;;;15.60;99.90;;;14.55;67.99;102042.00;5014128;28;20143;-75
2021/06/04 02:45:40;;;;;;;7.55;3.90;;;15.70;99.90;;;14.66;67.43;102038.06;4990960;28;20516;-76
2021/06/04 02:48:19;;;;;;;5.15;3.38;;;15.80;99.90;;;14.73;67.30;102040.38;5013372;28;20084;-75
2021/06/04 02:51:28;;;;;;;7.40;3.67;;;15.80;99.90;;;14.66;67.59;102035.41;5014030;28;20069;-75
2021/06/04 02:54:15;;;;;;;9.43;3.95;;;15.80;99.90;;;14.68;68.40;102033.56;4993635;28;20071;-76
2021/06/04 02:56:48;;;;;;;6.05;3.65;;;15.70;99.90;;;14.62;67.10;102021.44;4975383;28;20052;-76
2021/06/04 02:59:25;;;;;;;7.97;3.42;;;15.70;99.90;;;14.55;67.56;102028.75;4992655;28;20525;-76
2021/06/04 03:01:56;;;;;;;7.28;4.25;;;15.70;99.90;;;14.57;67.01;102018.97;4992513;28;20073;-76
2021/06/04 03:04:25;;;;;;;6.07;3.90;;;15.70;99.90;;;14.62;66.76;102020.56;4994084;28;20530;-76
2021/06/04 03:06:57;;;;;;;8.20;3.83;;;15.70;99.90;;;14.55;68.99;102014.66;4993600;28;20064;-76
2021/06/04 03:09:31;;;;;;;6.93;3.95;;;15.60;99.90;;;14.43;70.20;102016.03;4979243;28;20107;-76
2021/06/04 03:12:06;;;;;;;6.10;3.65;;;15.50;99.90;;;14.38;69.32;102014.47;5011345;28;20058;-76
2021/06/04 03:14:32;;;;;;;8.90;3.92;;;15.50;99.90;;;14.37;69.02;102013.63;5014481;28;20069;-76
2021/06/04 03:17:02;;;;;;;7.20;3.55;;;15.50;99.90;;;14.43;68.33;102016.03;5003800;28;20084;-75
2021/06/04 03:19:28;;;;;;;9.55;3.63;;;15.60;99.90;;;14.53;67.56;102012.03;5001882;28;20056;-76
2021/06/04 03:22:18;;;;;;;4.88;3.25;;;15.70;99.90;;;14.59;67.23;102010.09;5001748;28;20054;-76
2021/06/04 03:24:46;;;;;;;6.32;3.75;;;15.70;99.90;;;14.55;66.68;102012.84;5014743;28;20096;-76
2021/06/04 03:27:15;;;;;;;8.57;3.65;;;15.80;99.90;;;14.81;64.79;102021.47;5012435;28;20536;-76
2021/06/04 03:29:42;;;;;;;5.57;3.35;;;16.00;99.90;;;14.89;64.59;102016.72;5010211;28;20072;-76
2021/06/04 03:32:12;;;;;;;7.13;3.70;;;16.10;99.90;;;15.00;64.10;102018.03;5004588;28;20060;-76
2021/06/04 03:34:42;;;;;;;12.25;3.28;;;16.10;99.90;;;15.07;63.76;102011.50;5009975;28;20083;-76
2021/06/04 03:37:09;;;;;;;5.68;3.30;;;16.20;99.90;;;15.26;63.30;102012.41;4992576;28;20062;-75
2021/06/04 03:39:45;;;;;;;7.20;3.67;;;16.20;99.90;;;15.15;63.98;102010.22;4978124;28;20060;-75
2021/06/04 03:42:26;;;;;;;5.90;3.17;;;16.20;99.90;;;15.21;63.50;101998.50;5006951;28;20071;-76
2021/06/04 03:44:53;;;;;;;6.38;3.40;;;16.30;99.90;;;15.24;63.09;101997.47;4991940;28;20065;-76
2021/06/04 03:47:21;;;;;;;8.82;3.55;;;16.30;99.90;;;15.24;63.70;102000.13;4994067;28;20151;-76
2021/06/04 03:49:49;;;;;;;4.70;3.25;;;16.30;99.90;;;15.18;63.29;101998.59;4994335;28;20068;-76
2021/06/04 03:52:23;;;;;;;9.32;3.60;;;16.30;99.90;;;15.25;63.36;101996.53;4988442;28;20067;-76
2021/06/04 03:54:56;;;;;;;8.25;3.22;;;16.40;99.90;;;15.38;62.26;101993.25;5005470;28;20061;-76
2021/06/04 03:57:29;;;;;;;5.63;3.72;;;16.40;99.90;;;15.41;62.07;101994.91;4994312;28;20068;-76
2021/06/04 03:59:56;;;;;;;10.95;3.67;;;16.50;99.90;;;15.45;61.61;101992.97;4969044;28;20123;-76
2021/06/04 04:02:27;;;;;;;10.80;4.00;;;16.50;99.90;;;15.53;61.56;101999.66;4977080;28;20093;-76
2021/06/04 04:04:58;;;;;;;7.93;4.13;;;16.50;99.90;;;15.49;63.01;101998.06;5002147;28;20089;-76
2021/06/04 04:07:28;;;;;;;8.82;3.95;;;16.40;99.90;;;15.39;64.75;102004.72;4987269;28;20562;-76
2021/06/04 04:09:56;;;;;;;5.70;3.67;;;16.40;99.90;;;15.35;66.58;102006.66;5007506;28;20070;-76
2021/06/04 04:12:24;;;;;;;5.40;3.40;;;16.30;99.90;;;15.24;68.57;102005.44;4993992;28;20088;-76
2021/06/04 04:14:50;;;;;;;8.77;3.47;;;16.20;99.90;;;15.04;69.15;102014.31;4995906;28;20422;-76
2021/06/04 04:17:16;;;;;;;8.43;3.42;;;16.10;99.90;;;14.97;68.69;102011.94;5012889;28;20087;-76
2021/06/04 04:19:42;;;;;;;5.93;3.33;;;16.10;99.90;;;15.03;69.42;102020.53;4998518;28;20524;-76
2021/06/04 04:22:08;;;;;;;9.85;3.70;;;16.20;99.90;;;15.03;70.68;102020.53;5015650;28;20137;-76
2021/06/04 04:24:38;;;;;;;15.43;4.10;;;16.20;99.90;;;15.06;68.01;102021.25;5015574;28;20119;-76
2021/06/04 04:27:11;;;;;;;6.50;3.53;;;16.20;99.90;;;15.09;69.07;102020.25;5019574;28;20553;-76
2021/06/04 04:29:37;;;;;;;7.10;3.45;;;16.20;99.90;;;15.16;66.94;102021.69;5014461;28;20067;-76
2021/06/04 04:32:13;;;;;;;8.88;3.42;;;16.20;99.90;;;15.19;67.22;102026.88;5007959;28;20064;-76
2021/06/04 04:34:42;;;;;;;10.65;3.50;;;16.30;99.90;;;15.23;69.05;102027.63;5014488;28;20462;-77
2021/06/04 04:37:09;;;;;;;5.95;3.40;;;16.30;99.90;;;15.22;72.74;102025.88;4982249;28;20067;-76
2021/06/04 04:39:39;;;;;;;7.28;3.70;;;16.20;99.90;;;15.19;73.34;102034.84;4996577;28;20064;-76
2021/06/04 04:42:10;;;;;;;10.38;3.95;;;16.20;99.90;;;15.17;74.08;102044.66;5015369;28;20059;-76
2021/06/04 04:44:39;;;;;;;6.93;4.20;;;16.30;99.90;;;15.17;74.30;102036.69;5007705;28;20060;-76
2021/06/04 04:47:10;;;;;;;8.32;3.78;;;16.30;99.90;;;15.21;74.31;102050.69;4990767;28;20526;-76
2021/06/04 04:49:36;;;;;;;6.55;4.10;;;16.30;99.90;;;15.23;75.34;102043.53;5005620;28;20056;-76
2021/06/04 04:52:11;;;;;;;5.45;3.40;;;16.30;99.90;;;15.20;75.51;102047.16;4997164;28;20089;-76
2021/06/04 04:54:51;;;;;;;5.32;3.45;;;16.40;99.90;;;15.25;73.96;102058.44;4995486;28;20107;-76
2021/06/04 04:57:18;;;;;;;6.03;3.97;;;16.40;99.90;;;15.32;75.09;102059.03;4991343;28;20085;-77
2021/06/04 04:59:44;;;;;;;7.03;3.97;;;16.40;99.90;;;15.26;74.38;102054.00;4991759;28;20065;-76
2021/06/04 05:02:11;;;;;;;10.48;3.92;;;16.40;99.90;;;15.30;74.29;102051.13;5004196;28;20049;-77
2021/06/04 05:04:38;;;;;;;8.27;3.70;;;16.50;99.90;;;15.38;74.28;102054.31;5016793;28;20051;-76
2021/06/04 05:07:05;;;;;;;7.35;3.47;;;16.60;99.90;;;15.49;73.57;102060.91;4995206;28;20066;-76
2021/06/04 05:09:33;;;;;;;7.38;3.88;;;16.70;99.90;;;15.41;73.20;102060.41;4979542;28;20062;-77
2021/06/04 05:12:00;;;;;;;5.90;3.25;;;16.70;99.90;;;15.46;73.32;102063.69;4997458;28;20077;-76
2021/06/04 05:14:26;;;;;;;4.95;3.70;;;16.60;99.90;;;15.54;72.82;102066.88;4975435;28;20216;-76
2021/06/04 05:16:52;;;;;;;6.82;3.65;;;16.70;99.90;;;15.62;73.64;102069.19;5019859;28;20070;-77
2021/06/04 05:19:18;;;;;;;6.25;3.70;;;16.70;99.90;;;15.64;74.64;102059.34;4979114;28;20396;-76
2021/06/04 05:21:44;;;;;;;5.35;3.72;;;16.80;99.90;;;15.69;75.12;102068.81;5010719;28;20073;-76
2021/06/04 05:24:11;;;;;;;8.70;3.78;;;16.80;99.90;;;15.74;75.07;102061.53;5033368;28;20321;-76
2021/06/04 05:26:38;;;;;;;11.98;4.60;;;16.90;99.90;;;15.77;75.07;102058.72;5015946;28;20066;-76
2021/06/04 05:29:07;;;;;;;6.40;4.35;;;16.90;99.90;;;15.57;76.56;102058.75;4995834;28;20214;-76
2021/06/04 05:31:34;;;;;;;6.13;3.63;;;16.80;99.90;;;15.63;73.73;102057.59;4980287;28;20101;-76
2021/06/04 05:34:00;;;;;;;4.80;3.53;;;16.80;99.90;;;15.60;74.83;102058.63;5012299;28;20059;-76
2021/06/04 05:36:32;;;;;;;6.32;3.72;;;16.70;99.90;;;15.48;75.89;102064.50;5016286;28;20084;-76
2021/06/04 05:39:08;;;;;;;9.15;3.92;;;16.60;99.90;;;15.48;78.05;102053.88;5013049;28;20413;-77
2021/06/04 05:41:35;;;;;;;5.53;4.18;;;16.70;99.90;;;15.52;78.00;102047.50;5015137;28;20062;-76
2021/06/04 05:44:02;;;;;;;12.65;4.10;;;16.50;99.90;;;15.37;78.52;102044.59;5013105;28;21865;-76
2021/06/04 05:46:28;;;;;;;6.05;3.95;;;16.50;99.90;;;15.36;78.53;102048.19;5001065;28;20073;-76
2021/06/04 05:48:54;;;;;;;6.95;4.68;;;16.50;99.90;;;15.47;78.47;102047.72;4975001;28;20441;-76
2021/06/04 05:51:28;;;;;;;7.72;4.03;;;16.70;99.90;;;15.69;76.95;102034.28;5012200;28;20078;-76
2021/06/04 05:53:55;;;;;;;6.55;4.15;;;16.70;99.90;;;15.68;75.58;102040.53;5006271;28;20066;-76
2021/06/04 05:56:27;;;;;;;6.30;3.92;;;16.70;99.90;;;15.67;75.91;102045.91;5004951;28;20070;-76
2021/06/04 05:58:53;;;;;;;9.85;4.40;;;16.80;99.90;;;15.68;76.92;102034.34;5013866;28;20059;-76
2021/06/04 06:01:28;;;;;;;7.90;4.07;;;16.80;99.90;;;15.74;76.21;102042.94;4986514;28;20414;-76
2021/06/04 06:03:54;;;;;;;8.80;4.70;;;16.80;99.90;;;15.81;77.31;102051.47;5020734;28;20089;-76
2021/06/04 06:06:20;;;;;;;5.72;4.03;;;16.90;99.90;;;15.84;77.38;102039.84;5000278;28;20070;-76
2021/06/04 06:08:46;;;;;;;6.63;4.00;;;17.00;99.90;;;15.87;75.39;102039.69;4987739;28;20477;-76
2021/06/04 06:11:16;;;;;;;5.63;3.95;;;17.00;99.90;;;15.79;74.45;102043.56;5009403;28;20145;-76
2021/06/04 06:13:43;;;;;;;8.70;4.40;;;16.90;99.90;;;15.89;75.42;102043.13;5004144;28;20083;-76
2021/06/04 06:16:11;;;;;;;5.95;4.10;;;16.90;99.90;;;15.80;75.18;102049.75;4982039;28;20144;-76
2021/06/04 06:18:37;;;;;;;6.60;4.18;;;16.70;99.90;;;15.61;74.44;102052.38;5003540;28;20107;-76
2021/06/04 06:21:04;;;;;;;9.15;5.15;;;16.70;99.90;;;15.52;73.86;102058.09;5002609;28;20442;-76
2021/06/04 06:23:34;;;;;;;7.13;4.65;;;16.70;99.90;;;15.60;74.44;102058.63;5011301;28;20085;-76
2021/06/04 06:26:18;;;;;;;6.65;4.55;;;16.70;99.90;;;15.68;74.72;102053.81;5004509;28;20563;-76
2021/06/04 06:28:46;;;;;;;7.22;4.65;;;16.80;99.90;;;15.81;74.57;102055.91;4998583;28;20076;-76
2021/06/04 06:31:21;;;;;;;7.10;4.70;;;16.80;99.90;;;15.75;75.64;102055.28;4996123;28;20058;-77
2021/06/04 06:33:48;;;;;;;7.82;4.63;;;16.80;99.90;;;15.71;75.71;102051.03;5003573;28;20098;-76
2021/06/04 06:36:19;;;;;;;10.77;5.50;;;16.80;99.90;;;15.75;75.38;102046.47;4997757;28;20107;-76
2021/06/04 06:38:48;;;;;;;11.70;5.20;;;16.80;99.90;;;15.70;76.88;102044.00;5012762;28;20405;-76
2021/06/04 06:41:16;;;;;;;11.43;5.55;;;16.80;99.90;;;15.74;78.02;102036.75;5005752;28;20415;-76
2021/06/04 06:43:48;;;;;;;11.05;5.60;;;16.70;99.90;;;15.66;78.80;102036.22;5005323;28;20072;-76
2021/06/04 06:46:16;;;;;;;9.35;5.90;;;16.80;99.90;;;15.77;77.99;102040.13;5011437;28;20045;-77
2021/06/04 06:48:43;;;;;;;8.60;5.57;;;16.90;99.90;;;15.89;78.53;102035.16;4985491;28;20534;-76
2021/06/04 06:51:10;;;;;;;13.15;6.10;;;17.00;99.90;;;15.90;77.68;102044.88;4991418;28;20053;-76
2021/06/04 06:53:39;;;;;;;15.73;6.22;;;17.00;99.90;;;15.94;77.44;102049.09;5004143;28;20072;-76
2021/06/04 06:56:10;;;;;;;9.93;6.18;;;17.10;99.90;;;16.13;78.80;102041.06;5036813;28;20100;-76
2021/06/04 06:58:37;;;;;;;13.40;6.70;;;17.30;99.90;;;16.25;77.13;102042.28;4977718;28;20104;-76
2021/06/04 07:01:06;;;;;;;10.32;6.43;;;17.30;99.90;;;16.30;77.21;102043.75;4995005;28;20507;-76
2021/06/04 07:03:37;;;;;;;12.95;6.97;;;17.30;99.90;;;16.25;77.20;102040.47;5000660;28;20156;-77
2021/06/04 07:06:14;;;;;;;13.10;5.60;;;17.40;99.90;;;16.56;76.04;102044.25;5003990;28;20447;-77
2021/06/04 07:08:39;;;;;;;13.00;5.45;;;17.60;99.90;;;16.56;77.34;102047.75;4997949;28;20433;-77
2021/06/04 07:11:05;;;;;;;10.70;5.72;;;17.70;99.90;;;16.78;76.74;102051.97;4970375;28;20058;-77
2021/06/04 07:13:35;;;;;;;10.35;6.25;;;17.90;99.90;;;16.86;77.79;102052.47;5020933;28;20075;-77
2021/06/04 07:16:07;;;;;;;11.13;5.72;;;17.90;99.90;;;16.87;75.79;102053.34;5011955;28;20080;-77
2021/06/04 07:18:35;;;;;;;9.90;6.70;;;18.00;99.90;;;17.07;74.33;102065.63;4992054;28;20072;-77
2021/06/04 07:21:01;;;;;;;10.02;5.85;;;18.00;99.90;;;17.08;75.51;102072.66;4971720;28;20546;-77
2021/06/04 07:23:29;;;;;;;10.23;5.88;;;18.00;99.90;;;16.83;75.11;102068.63;4973226;28;20062;-77
2021/06/04 07:25:56;;;;;;;10.68;6.35;;;18.00;99.90;;;16.80;75.88;102069.63;4987173;28;22262;-77
2021/06/04 07:28:27;;;;;;;13.73;6.43;;;17.90;99.90;;;16.68;76.36;102078.19;4979380;28;20132;-77
2021/06/04 07:30:56;;;;;;;9.95;6.20;;;17.80;99.90;;;16.64;76.70;102081.09;4998469;28;20076;-77
2021/06/04 07:33:34;;;;;;;10.27;6.13;;;17.70;99.90;;;16.48;76.24;102075.66;5002707;28;20146;-77
2021/06/04 07:36:06;;;;;;;10.27;6.32;;;17.60;99.90;;;16.43;76.73;102077.72;4980798;28;20154;-77
2021/06/04 07:38:33;;;;;;;12.85;6.35;;;17.60;99.90;;;16.44;77.69;102071.47;5021698;28;20073;-77
2021/06/04 07:41:00;;;;;;;14.45;6.68;;;17.60;99.90;;;16.52;77.73;102072.81;4976120;28;20033;-77
2021/06/04 07:43:29;;;;;;;11.23;5.85;;;17.60;99.90;;;16.56;78.22;102078.81;4984182;28;20567;-77
2021/06/04 07:45:57;;;;;;;11.95;5.72;;;17.70;99.90;;;16.55;76.97;102063.81;4985953;28;20103;-80
2021/06/04 07:48:23;;;;;;;9.85;6.05;;;17.70;99.90;;;16.47;77.42;102072.16;5002124;28;20091;-77
2021/06/04 07:50:52;;;;;;;12.55;5.95;;;17.50;99.90;;;16.47;76.81;102073.97;4990127;28;20053;-77
2021/06/04 07:53:28;;;;;;;13.98;5.47;;;17.50;99.90;;;16.39;77.19;102066.34;5019635;28;20025;-77
2021/06/04 07:55:55;;;;;;;11.95;6.47;;;17.40;99.90;;;16.23;77.37;102070.72;4965049;28;20067;-77
2021/06/04 07:58:22;;;;;;;12.48;6.10;;;17.30;99.90;;;16.23;76.75;102076.91;4978291;28;20569;-77
2021/06/04 08:00:49;;;;;;;13.48;5.40;;;17.30;99.90;;;16.20;77.63;102075.25;4981629;28;20139;-77
2021/06/04 08:03:25;;;;;;;10.50;5.90;;;17.20;99.90;;;16.10;77.33;102075.78;5013868;28;20067;-77
2021/06/04 08:05:53;;;;;;;9.40;5.43;;;17.30;99.90;;;16.24;77.27;102075.09;5005695;28;20068;-77
2021/06/04 08:08:22;;;;;;;11.13;5.85;;;17.30;99.90;;;16.24;77.81;102080.41;5013460;28;20103;-77
2021/06/04 08:10:49;;;;;;;8.98;6.22;;;17.30;99.90;;;16.17;78.20;102075.38;4972351;28;20058;-77
2021/06/04 08:13:19;;;;;;;13.15;6.20;;;17.40;99.90;;;16.35;78.38;102080.78;5007649;28;20097;-77
2021/06/04 08:16:00;;;;;;;8.88;5.97;;;17.50;99.90;;;16.52;79.13;102075.47;5011688;28;20079;-77
2021/06/04 08:18:30;;;;;;;13.55;6.05;;;17.60;99.90;;;16.47;82.11;102069.50;5003736;28;20060;-77
2021/06/04 08:20:58;;;;;;;14.35;5.47;;;17.70;99.90;;;16.65;81.67;102080.16;5013776;28;20471;-77
2021/06/04 08:23:30;;;;;;;12.18;5.80;;;17.80;99.90;;;16.69;81.99;102074.59;4998377;28;20068;-77
2021/06/04 08:25:58;;;;;;;11.35;5.80;;;17.90;99.90;;;16.80;81.04;102068.75;5011863;28;20699;-77
2021/06/04 08:28:27;;;;;;;12.32;5.65;;;17.80;99.90;;;16.72;80.22;102068.28;5013943;28;20079;-77
2021/06/04 08:30:53;;;;;;;9.05;5.78;;;17.70;99.90;;;16.44;78.73;102069.66;5002009;28;20113;-77
2021/06/04 08:33:31;;;;;;;9.45;5.38;;;17.60;99.90;;;16.44;79.61;102075.00;5003207;28;21068;-77
2021/06/04 08:35:59;;;;;;;7.82;5.57;;;17.50;99.90;;;16.44;79.60;102072.31;4997931;28;21356;-77
2021/06/04 08:38:30;;;;;;;12.75;6.10;;;17.50;99.90;;;16.47;79.98;102074.81;4997042;28;20064;-77
2021/06/04 08:41:20;;;;;;;8.60;5.40;;;17.60;99.90;;;16.43;78.57;102078.56;5012686;28;20059;-77
2021/06/04 08:44:04;;;;;;;16.10;6.53;;;17.50;99.90;;;16.42;79.84;102074.19;4997325;28;20065;-77
2021/06/04 08:46:36;;;;;;;8.60;5.75;;;17.50;99.90;;;16.46;79.64;102072.22;4988700;28;20403;-77
2021/06/04 08:49:46;;;;;;;9.00;5.65;;;17.50;99.90;;;16.47;78.70;102072.16;4992563;28;20099;-77
2021/06/04 08:52:26;;;;;;;10.02;5.60;;;17.60;99.90;;;16.52;79.42;102074.59;4991051;28;20072;-76
2021/06/04 08:55:31;;;;;;;8.68;5.75;;;17.50;99.90;;;16.39;79.58;102069.00;4973934;28;20550;-77
2021/06/04 08:58:18;;;;;;;11.07;5.40;;;17.50;99.90;;;16.54;79.44;102070.94;5001144;28;20524;-77
2021/06/04 09:01:18;;;;;;;8.25;6.03;;;17.60;99.90;;;16.57;78.63;102067.25;4978496;28;20065;-77
2021/06/04 09:04:27;;;;;;;9.88;5.18;;;17.70;99.90;;;16.72;78.94;102070.94;4947652;28;20079;-76
2021/06/04 09:07:19;;;;;;;7.78;4.47;;;17.90;99.90;;;16.83;76.43;102070.41;4961393;28;20064;-77
2021/06/04 09:10:15;;;;;;;13.13;5.07;;;18.10;99.90;;;17.01;76.50;102067.63;4962957;28;20076;-77
2021/06/04 09:13:23;;;;;;;11.25;5.50;;;18.10;99.90;;;17.30;75.23;102067.91;4963297;28;20151;-77
2021/06/04 09:16:39;;;;;;;8.73;4.90;;;18.30;99.90;;;17.14;75.17;102065.19;4962298;28;21280;-77
2021/06/04 09:19:53;;;;;;;10.32;4.85;;;18.20;99.90;;;17.11;75.57;102072.50;4953256;28;20060;-77
2021/06/04 09:22:58;;;;;;;11.07;5.57;;;18.10;99.90;;;16.94;77.68;102076.91;4953274;28;20406;-77
2021/06/04 09:25:44;;;;;;;8.05;4.72;;;18.10;99.90;;;17.12;76.24;102068.88;4961560;28;20111;-76
2021/06/04 09:29:13;;;;;;;10.20;4.97;;;18.10;99.90;;;17.05;75.83;102072.81;4951367;28;20532;-77
2021/06/04 09:32:39;;;;;;;6.35;4.97;;;18.10;99.90;;;16.98;76.92;102067.81;4977189;28;20439;-77
2021/06/04 09:35:32;;;;;;;10.00;5.10;;;18.10;99.90;;;17.01;75.53;102066.78;4976079;28;20072;-77
2021/06/04 09:38:39;;;;;;;7.82;4.55;;;18.20;99.90;;;17.13;76.68;102070.63;4959202;28;21864;-77
2021/06/04 09:42:01;;;;;;;9.05;5.22;;;18.30;99.90;;;17.16;75.61;102065.13;4937985;28;20050;-77
2021/06/04 09:45:19;;;;;;;12.05;5.13;;;18.40;99.90;;;17.31;74.23;102058.97;4968041;28;20636;-77
2021/06/04 09:48:11;;;;;;;13.57;5.40;;;18.20;99.90;;;17.16;75.41;102052.66;4963860;28;20087;-77
2021/06/04 09:51:41;;;;;;;6.68;4.68;;;18.20;99.90;;;17.23;74.57;102053.19;4933800;28;20065;-77
2021/06/04 09:55:16;;;;;;;14.95;4.90;;;18.20;99.90;;;17.13;73.86;102052.00;4959892;28;20059;-77
2021/06/04 09:58:45;;;;;;;9.63;4.70;;;18.20;99.90;;;17.07;73.36;102053.16;4977447;28;20511;-77
2021/06/04 10:05:45;;;;;;;10.73;4.82;;;18.30;99.90;;;17.09;72.20;102053.09;4962725;28;20591;-77
2021/06/04 10:09:25;;;;;;;9.98;5.10;;;18.20;99.90;;;17.19;72.91;102055.19;4972300;28;20055;-77
2021/06/04 10:13:29;;;;;;;7.78;5.00;;;18.30;99.90;;;17.05;72.78;102047.06;4975726;28;20439;-77
2021/06/04 10:20:28;;;;;;;12.35;5.22;;;18.10;99.90;;;17.13;73.16;102049.34;4973048;28;20146;-77
2021/06/04 10:24:09;;;;;;;7.78;4.82;;;18.20;99.90;;;17.25;72.64;102048.66;4960464;28;20059;-78
2021/06/04 10:27:44;;;;;;;8.82;5.10;;;18.30;99.90;;;17.31;71.89;102050.13;4956831;28;20061;-77
2021/06/04 10:31:14;;;;;;;6.75;4.35;;;18.40;99.90;;;17.35;71.94;102041.91;4939758;28;20075;-78
2021/06/04 10:34:37;;;;;;;7.85;5.00;;;18.50;99.90;;;17.61;71.29;102036.94;5006374;28;20040;-77
2021/06/04 10:38:07;;;;;;;9.13;5.55;;;18.60;99.90;;;17.59;70.79;102025.53;4955308;28;20157;-77
2021/06/04 10:41:50;;;;;;;10.00;4.95;;;18.50;99.90;;;17.42;71.55;102029.97;4976907;28;20090;-77
2021/06/04 10:44:58;;;;;;;11.73;5.00;;;18.70;99.90;;;17.92;69.60;102027.25;4953530;28;20071;-77
2021/06/04 10:48:10;;;;;;;8.85;4.63;;;19.00;99.90;;;17.92;70.62;102036.09;4958512;28;20741;-77
2021/06/04 10:51:14;;;;;;;8.52;4.80;;;18.90;99.90;;;17.74;69.87;102024.66;4958373;28;20746;-77
2021/06/04 10:54:55;;;;;;;6.43;4.60;;;18.90;99.90;;;17.97;70.31;102038.50;4951661;28;20087;-77
2021/06/04 10:58:01;;;;;;;14.02;4.88;;;19.10;99.90;;;18.07;68.38;102029.03;4979800;28;20052;-77
2021/06/04 11:00:43;;;;;;;5.68;4.35;;;19.20;99.90;;;18.19;68.72;102024.81;4995623;28;20115;-77
2021/06/04 11:03:42;;;;;;;10.02;4.85;;;19.20;99.90;;;18.24;68.43;102026.25;4978376;28;20025;-77
2021/06/04 11:07:00;;;;;;;8.50;4.80;;;19.40;99.90;;;18.34;68.23;102034.59;5006449;28;20017;-77
2021/06/04 11:09:43;;;;;;;10.45;4.78;;;19.50;99.90;;;18.63;68.36;102034.66;4999787;28;20493;-77